createdAt,value
2017-03-19T00:00:57.469Z,68.02
2017-03-19T00:02:07.805Z,67.93
2017-03-19T00:03:18.141Z,68.12
2017-03-19T00:04:28.507Z,68.4
2017-03-19T00:05:38.838Z,68.3
2017-03-19T00:06:49.192Z,68.3
2017-03-19T00:07:59.574Z,68.12
2017-03-19T00:09:09.918Z,68.21
2017-03-19T00:10:19.973Z,68.21
2017-03-19T00:11:30.020Z,68.02
2017-03-19T00:12:40.354Z,67.83
2017-03-19T00:13:50.707Z,67.93
2017-03-19T00:15:01.051Z,67.93
2017-03-19T00:16:11.087Z,67.93
2017-03-19T00:17:21.424Z,67.93
2017-03-19T00:18:31.766Z,67.64
2017-03-19T00:19:42.126Z,67.83
2017-03-19T00:20:52.463Z,67.74
2017-03-19T00:22:02.803Z,67.93
2017-03-19T00:23:13.156Z,67.64
2017-03-19T00:24:23.507Z,67.93
2017-03-19T00:25:33.850Z,67.93
2017-03-19T00:26:44.190Z,67.93
2017-03-19T00:27:54.529Z,67.74
2017-03-19T00:29:04.569Z,68.12
2017-03-19T00:30:14.976Z,68.12
2017-03-19T00:31:25.317Z,67.93
2017-03-19T00:32:34.721Z,68.3
2017-03-19T00:33:45.088Z,67.93
2017-03-19T00:34:55.425Z,68.3
2017-03-19T00:36:05.467Z,67.93
2017-03-19T00:37:15.833Z,68.02
2017-03-19T00:38:25.559Z,68.02
2017-03-19T00:39:35.901Z,67.45
2017-03-19T00:40:46.257Z,67.55
2017-03-19T00:41:56.623Z,67.74
2017-03-19T00:43:06.684Z,67.55
2017-03-19T00:44:17.046Z,67.26
2017-03-19T00:45:27.419Z,67.68
2017-03-19T00:46:37.765Z,67.2
2017-03-19T00:47:48.105Z,67.29
2017-03-19T00:48:58.442Z,67.55
2017-03-19T00:50:08.786Z,67.29
2017-03-19T00:51:19.144Z,67.45
2017-03-19T00:52:29.489Z,67.2
2017-03-19T00:53:39.842Z,67.1
2017-03-19T00:54:50.174Z,67
2017-03-19T00:56:00.191Z,67.29
2017-03-19T00:57:10.215Z,67.68
2017-03-19T00:58:20.562Z,67.48
2017-03-19T00:59:30.899Z,67.77
2017-03-19T01:00:41.238Z,67.77
2017-03-19T01:01:51.298Z,67.48
2017-03-19T01:03:01.643Z,67.29
2017-03-19T01:04:11.999Z,67.39
2017-03-19T01:05:22.030Z,67.2
2017-03-19T01:06:32.378Z,67.16
2017-03-19T01:07:42.722Z,67.1
2017-03-19T01:08:52.744Z,67.39
2017-03-19T01:10:03.104Z,67.39
2017-03-19T01:11:13.448Z,67.39
2017-03-19T01:12:24.020Z,67.2
2017-03-19T01:13:34.069Z,67.16
2017-03-19T01:14:44.415Z,67.64
2017-03-19T01:15:54.136Z,67.64
2017-03-19T01:17:04.467Z,67.35
2017-03-19T01:18:14.810Z,67.68
2017-03-19T01:19:25.201Z,68.24
2017-03-19T01:20:35.222Z,68.02
2017-03-19T01:21:45.553Z,68.12
2017-03-19T01:22:55.896Z,67.93
2017-03-19T01:24:05.952Z,68.02
2017-03-19T01:25:16.286Z,68.12
2017-03-19T01:26:26.000Z,67.83
2017-03-19T01:27:36.037Z,67.74
2017-03-19T01:28:46.384Z,68.02
2017-03-19T01:29:56.717Z,67.93
2017-03-19T01:31:06.755Z,67.93
2017-03-19T01:32:17.084Z,68.02
2017-03-19T01:33:27.442Z,67.83
2017-03-19T01:34:37.464Z,68.02
2017-03-19T01:35:47.869Z,67.93
2017-03-19T01:36:58.203Z,67.93
2017-03-19T01:38:08.240Z,68.21
2017-03-19T01:39:18.579Z,68.21
2017-03-19T01:40:28.623Z,68.4
2017-03-19T01:41:38.986Z,68.4
2017-03-19T01:42:49.335Z,68.3
2017-03-19T01:43:59.682Z,68.5
2017-03-19T01:45:09.712Z,68.21
2017-03-19T01:46:20.053Z,68.02
2017-03-19T01:47:30.435Z,68.02
2017-03-19T01:48:40.784Z,68.02
2017-03-19T01:49:50.815Z,68.4
2017-03-19T01:51:01.173Z,67.99
2017-03-19T01:52:11.518Z,67.99
2017-03-19T01:53:21.557Z,68.27
2017-03-19T01:54:31.280Z,68.18
2017-03-19T01:55:41.342Z,68.56
2017-03-19T01:56:51.043Z,68.37
2017-03-19T01:58:01.361Z,67.99
2017-03-19T01:59:11.420Z,67.7
2017-03-19T02:00:21.456Z,67.99
2017-03-19T02:01:31.784Z,67.99
2017-03-19T02:02:42.133Z,67.89
2017-03-19T02:03:52.480Z,67.7
2017-03-19T02:05:02.503Z,67.99
2017-03-19T02:06:12.877Z,68.18
2017-03-19T02:07:23.219Z,67.8
2017-03-19T02:08:33.567Z,67.89
2017-03-19T02:09:43.633Z,67.89
2017-03-19T02:10:53.976Z,67.89
2017-03-19T02:12:04.329Z,67.7
2017-03-19T02:13:14.666Z,67.7
2017-03-19T02:14:25.002Z,67.89
2017-03-19T02:15:35.342Z,67.8
2017-03-19T02:16:45.687Z,67.89
2017-03-19T02:17:56.060Z,67.99
2017-03-19T02:19:06.393Z,68.18
2017-03-19T02:20:16.740Z,68.27
2017-03-19T02:21:27.088Z,68.08
2017-03-19T02:22:37.441Z,67.99
2017-03-19T02:23:47.803Z,67.89
2017-03-19T02:24:58.171Z,67.8
2017-03-19T02:26:08.506Z,67.89
2017-03-19T02:27:18.528Z,67.89
2017-03-19T02:28:28.871Z,67.8
2017-03-19T02:29:38.600Z,67.89
2017-03-19T02:30:48.939Z,68.08
2017-03-19T02:31:59.277Z,68.08
2017-03-19T02:33:09.351Z,68.18
2017-03-19T02:34:19.378Z,67.89
2017-03-19T02:35:29.726Z,68.27
2017-03-19T02:36:39.738Z,67.99
2017-03-19T02:37:49.769Z,67.89
2017-03-19T02:39:00.110Z,67.89
2017-03-19T02:40:10.140Z,67.89
2017-03-19T02:41:20.172Z,67.8
2017-03-19T02:42:30.231Z,67.89
2017-03-19T02:43:40.274Z,68.18
2017-03-19T02:44:50.629Z,67.89
2017-03-19T02:46:00.966Z,67.32
2017-03-19T02:47:11.296Z,67.99
2017-03-19T02:48:21.656Z,67.99
2017-03-19T02:49:31.667Z,67.41
2017-03-19T02:50:41.680Z,67.61
2017-03-19T02:51:52.035Z,67.61
2017-03-19T02:53:02.375Z,67.32
2017-03-19T02:54:12.715Z,67.89
2017-03-19T02:55:22.769Z,67.86
2017-03-19T02:56:32.813Z,67.76
2017-03-19T02:57:42.859Z,67.89
2017-03-19T02:58:53.185Z,67.67
2017-03-19T03:00:02.922Z,67.95
2017-03-19T03:01:13.288Z,67.86
2017-03-19T03:32:22.755Z,65.79
2017-03-19T03:33:33.077Z,66.36
2017-03-19T03:34:43.410Z,66.74
2017-03-19T03:35:53.113Z,67.12
2017-03-19T03:37:03.433Z,67.69
2017-03-19T03:38:13.461Z,67.97
2017-03-19T03:39:23.505Z,68.77
2017-03-19T03:40:33.857Z,68.58
2017-03-19T03:41:44.190Z,68.77
2017-03-19T03:42:54.200Z,68.86
2017-03-19T03:44:04.541Z,69.05
2017-03-19T03:45:14.894Z,69.09
2017-03-19T03:46:25.229Z,69.09
2017-03-19T03:47:35.256Z,68.71
2017-03-19T03:48:45.300Z,68.99
2017-03-19T03:49:55.641Z,68.52
2017-03-19T03:51:05.657Z,68.55
2017-03-19T03:52:15.723Z,68.74
2017-03-19T03:53:26.061Z,69.02
2017-03-19T03:54:36.450Z,69.02
2017-03-19T03:55:46.766Z,68.46
2017-03-19T03:56:57.098Z,67.88
2017-03-19T03:58:07.422Z,67.88
2017-03-19T03:59:17.459Z,68.21
2017-03-19T04:00:27.490Z,67.92
2017-03-19T04:01:37.822Z,68.4
2017-03-19T04:02:47.538Z,68.11
2017-03-19T04:03:57.908Z,68.49
2017-03-19T04:05:08.232Z,68.3
2017-03-19T04:06:17.964Z,67.92
2017-03-19T04:07:28.311Z,67.92
2017-03-19T04:08:38.642Z,67.73
2017-03-19T04:09:48.990Z,67.73
2017-03-19T04:10:59.333Z,67.82
2017-03-19T04:12:09.078Z,68.21
2017-03-19T04:13:19.120Z,67.82
2017-03-19T04:14:29.495Z,68.11
2017-03-19T04:15:39.197Z,67.25
2017-03-19T04:16:49.537Z,67.54
2017-03-19T04:17:59.565Z,67.54
2017-03-19T04:19:09.899Z,67.54
2017-03-19T04:20:20.234Z,67.29
2017-03-19T04:21:30.265Z,67.47
2017-03-19T04:22:40.610Z,67.47
2017-03-19T04:23:50.965Z,67.29
2017-03-19T04:25:01.309Z,67.19
2017-03-19T04:26:11.647Z,67.19
2017-03-19T04:27:22.016Z,67.29
2017-03-19T04:28:32.366Z,67.29
2017-03-19T04:29:42.709Z,67.47
2017-03-19T04:30:53.034Z,67.29
2017-03-19T04:32:03.051Z,67.29
2017-03-19T04:33:13.398Z,67.38
2017-03-19T04:34:23.725Z,67.38
2017-03-19T04:35:33.758Z,67.29
2017-03-19T04:36:43.783Z,67.38
2017-03-19T04:37:54.118Z,67.38
2017-03-19T04:39:04.457Z,67.38
2017-03-19T04:40:14.796Z,67.67
2017-03-19T04:41:24.816Z,67.47
2017-03-19T04:42:35.157Z,67.47
2017-03-19T04:43:45.498Z,67.57
2017-03-19T04:44:55.584Z,67.47
2017-03-19T04:46:05.937Z,67.57
2017-03-19T04:47:16.291Z,67.47
2017-03-19T04:48:26.621Z,67.47
2017-03-19T04:49:37.012Z,67.19
2017-03-19T04:50:47.031Z,67.47
2017-03-19T04:51:57.362Z,67.19
2017-03-19T04:53:07.706Z,67.47
2017-03-19T04:54:18.048Z,67.47
2017-03-19T04:55:28.401Z,67.57
2017-03-19T04:56:38.768Z,67.57
2017-03-19T04:57:49.121Z,67.47
2017-03-19T04:58:59.468Z,67.47
2017-03-19T05:00:09.479Z,67.76
2017-03-19T05:01:19.497Z,67.67
2017-03-19T05:02:29.824Z,67.76
2017-03-19T05:03:40.165Z,67.61
2017-03-19T05:04:50.526Z,67.41
2017-03-19T05:06:00.857Z,67.41
2017-03-19T05:07:11.189Z,67.38
2017-03-19T05:08:21.209Z,67.41
2017-03-19T05:09:31.548Z,67.41
2017-03-19T05:10:41.886Z,67.41
2017-03-19T05:11:51.594Z,67.51
2017-03-19T05:13:01.943Z,67.51
2017-03-19T05:14:12.279Z,67.41
2017-03-19T05:15:22.632Z,67.22
2017-03-19T05:16:32.968Z,67.32
2017-03-19T05:17:43.324Z,67.32
2017-03-19T05:18:53.697Z,67.29
2017-03-19T05:20:04.023Z,67.32
2017-03-19T05:21:14.352Z,67.19
2017-03-19T05:22:24.391Z,67.47
2017-03-19T05:23:34.720Z,67.38
2017-03-19T05:24:45.091Z,67.57
2017-03-19T05:25:55.427Z,67.57
2017-03-19T05:27:05.138Z,67.67
2017-03-19T05:28:15.486Z,67.29
2017-03-19T05:29:25.834Z,67.47
2017-03-19T05:30:35.848Z,67.29
2017-03-19T05:31:46.174Z,67.38
2017-03-19T05:32:56.508Z,67.47
2017-03-19T05:34:06.579Z,67.19
2017-03-19T05:35:16.925Z,67.29
2017-03-19T05:36:27.261Z,67.29
2017-03-19T05:37:37.309Z,67.29
2017-03-19T05:38:47.651Z,67.29
2017-03-19T05:39:57.674Z,67.29
2017-03-19T05:41:08.005Z,67.38
2017-03-19T05:42:18.035Z,67.19
2017-03-19T05:43:28.373Z,67.38
2017-03-19T05:44:38.714Z,67.38
2017-03-19T05:45:49.061Z,67.47
2017-03-19T05:46:59.393Z,67.38
2017-03-19T05:48:09.424Z,67.76
2017-03-19T05:49:19.770Z,67.47
2017-03-19T05:50:29.786Z,67.47
2017-03-19T05:51:40.121Z,67.1
2017-03-19T05:52:50.451Z,67
2017-03-19T05:54:00.817Z,67
2017-03-19T05:55:10.839Z,67.57
2017-03-19T05:56:20.546Z,67.47
2017-03-19T05:57:30.900Z,66.91
2017-03-19T05:58:41.244Z,67.29
2017-03-19T05:59:51.609Z,66.81
2017-03-19T06:01:01.959Z,66.81
2017-03-19T06:02:12.291Z,67.57
2017-03-19T06:03:22.638Z,67.38
2017-03-19T06:04:32.992Z,67.38
2017-03-19T06:05:43.335Z,66.46
2017-03-19T06:06:53.671Z,67.32
2017-03-19T06:08:03.993Z,67.03
2017-03-19T06:09:14.010Z,67.03
2017-03-19T06:10:24.353Z,67.41
2017-03-19T06:11:34.677Z,67.61
2017-03-19T06:12:44.693Z,66.85
2017-03-19T06:13:55.038Z,67.03
2017-03-19T06:15:05.391Z,67.03
2017-03-19T06:16:15.773Z,67.03
2017-03-19T06:17:26.114Z,67.03
2017-03-19T06:18:35.823Z,67.13
2017-03-19T06:19:46.190Z,67.03
2017-03-19T06:20:56.553Z,66.85
2017-03-19T06:22:06.925Z,67.61
2017-03-19T06:23:17.276Z,67.41
2017-03-19T06:24:27.615Z,67.22
2017-03-19T06:25:37.649Z,67.41
2017-03-19T06:26:47.987Z,66.75
2017-03-19T06:27:58.011Z,67.32
2017-03-19T06:29:08.029Z,67.41
2017-03-19T06:30:18.370Z,67.41
2017-03-19T06:31:28.402Z,67.32
2017-03-19T06:32:38.738Z,67.41
2017-03-19T06:33:49.076Z,67.41
2017-03-19T06:34:59.108Z,67.26
2017-03-19T06:36:09.480Z,66.94
2017-03-19T06:37:19.807Z,67.03
2017-03-19T06:38:30.145Z,67.03
2017-03-19T06:39:40.467Z,67.32
2017-03-19T06:40:50.178Z,67.61
2017-03-19T06:42:00.240Z,67.55
2017-03-19T06:43:10.259Z,67.51
2017-03-19T06:44:20.291Z,66.97
2017-03-19T06:45:30.342Z,66.97
2017-03-19T06:46:40.707Z,66.78
2017-03-19T06:47:51.043Z,67.07
2017-03-19T06:49:01.083Z,66.78
2017-03-19T06:50:11.110Z,67.07
2017-03-19T06:51:21.445Z,67.07
2017-03-19T06:52:31.469Z,67.07
2017-03-19T06:53:41.810Z,66.88
2017-03-19T06:54:52.161Z,66.69
2017-03-19T06:56:02.200Z,66.78
2017-03-19T06:57:12.538Z,66.88
2017-03-19T06:58:22.879Z,66.88
2017-03-19T06:59:33.234Z,66.88
2017-03-19T07:00:43.593Z,67.07
2017-03-19T07:01:53.952Z,66.88
2017-03-19T07:03:03.981Z,66.88
2017-03-19T07:04:14.326Z,66.78
2017-03-19T07:05:24.047Z,66.59
2017-03-19T07:06:34.379Z,66.82
2017-03-19T07:07:44.454Z,66.63
2017-03-19T07:08:54.813Z,66.82
2017-03-19T07:10:05.177Z,66.82
2017-03-19T07:11:15.522Z,67.29
2017-03-19T07:12:25.909Z,67
2017-03-19T07:13:36.253Z,66.91
2017-03-19T07:14:46.287Z,67
2017-03-19T07:15:56.634Z,67.1
2017-03-19T07:17:06.976Z,67.2
2017-03-19T07:18:17.331Z,66.91
2017-03-19T07:19:27.719Z,67
2017-03-19T07:20:37.742Z,67.2
2017-03-19T07:21:48.070Z,66.91
2017-03-19T07:22:58.410Z,66.91
2017-03-19T07:24:08.780Z,67
2017-03-19T07:25:19.118Z,67.2
2017-03-19T07:26:29.477Z,67
2017-03-19T07:27:39.841Z,66.82
2017-03-19T07:28:50.188Z,67.1
2017-03-19T07:30:00.536Z,67.2
2017-03-19T07:31:10.879Z,66.82
2017-03-19T07:32:21.202Z,66.91
2017-03-19T07:39:52.638Z,67.48
2017-03-19T07:41:02.677Z,67.39
2017-03-19T07:42:12.705Z,67.48
2017-03-19T07:43:22.780Z,67.45
2017-03-19T07:44:33.138Z,67.2
2017-03-19T07:45:43.484Z,67
2017-03-19T07:46:53.229Z,67
2017-03-19T07:48:03.562Z,66.91
2017-03-19T07:49:13.947Z,67.39
2017-03-19T07:50:24.287Z,67.58
2017-03-19T07:51:34.325Z,66.82
2017-03-19T07:52:44.362Z,67.68
2017-03-19T07:53:54.727Z,67
2017-03-19T07:55:04.769Z,66.72
2017-03-19T07:56:15.110Z,67.1
2017-03-19T07:57:25.457Z,67.1
2017-03-19T07:58:35.809Z,66.91
2017-03-19T07:59:46.159Z,67
2017-03-19T08:00:56.494Z,66.82
2017-03-19T08:02:06.823Z,67
2017-03-19T08:03:17.157Z,66.72
2017-03-19T08:04:27.506Z,66.82
2017-03-19T08:05:37.910Z,66.91
2017-03-19T08:06:47.610Z,66.63
2017-03-19T08:07:57.954Z,67
2017-03-19T08:09:08.292Z,67
2017-03-19T08:10:18.705Z,67.1
2017-03-19T08:11:28.742Z,67
2017-03-19T08:12:39.087Z,66.91
2017-03-19T08:13:49.420Z,66.63
2017-03-19T08:14:59.437Z,67.1
2017-03-19T08:16:09.783Z,66.72
2017-03-19T08:17:20.130Z,66.82
2017-03-19T08:18:30.416Z,67
2017-03-19T08:19:40.808Z,67.1
2017-03-19T08:20:50.530Z,67.33
2017-03-19T08:22:00.881Z,66.91
2017-03-19T08:23:10.923Z,67.2
2017-03-19T08:24:21.281Z,67
2017-03-19T08:25:31.632Z,67
2017-03-19T08:26:41.985Z,67.1
2017-03-19T08:27:52.330Z,67
2017-03-19T08:29:02.701Z,66.91
2017-03-19T08:30:13.299Z,67
2017-03-19T08:31:23.650Z,66.66
2017-03-19T08:32:33.999Z,66.85
2017-03-19T08:33:44.368Z,66.75
2017-03-19T08:34:54.712Z,66.85
2017-03-19T08:36:05.055Z,66.75
2017-03-19T08:37:15.082Z,66.18
2017-03-19T08:38:25.441Z,66.38
2017-03-19T08:39:35.787Z,66.47
2017-03-19T08:40:46.183Z,66.66
2017-03-19T08:41:56.216Z,66.56
2017-03-19T08:43:06.267Z,66.38
2017-03-19T08:44:16.605Z,66.28
2017-03-19T08:45:26.948Z,66.47
2017-03-19T08:46:37.282Z,66.09
2017-03-19T08:47:47.310Z,65.99
2017-03-19T08:48:57.008Z,65.74
2017-03-19T08:50:07.348Z,66.22
2017-03-19T08:51:17.686Z,65.36
2017-03-19T08:52:27.706Z,65.36
2017-03-19T08:53:37.424Z,65.07
2017-03-19T08:54:47.766Z,65.1
2017-03-19T08:55:58.139Z,65.2
2017-03-19T08:57:08.186Z,65.2
2017-03-19T08:58:18.541Z,65.48
2017-03-19T08:59:28.581Z,65.58
2017-03-19T09:00:38.996Z,65.1
2017-03-19T09:01:49.351Z,64.94
2017-03-19T09:02:59.711Z,64.75
2017-03-19T09:04:10.073Z,64.28
2017-03-19T09:05:20.423Z,64.28
2017-03-19T09:06:30.766Z,64.31
2017-03-19T09:07:41.105Z,64.4
2017-03-19T09:08:51.469Z,64.31
2017-03-19T09:10:01.813Z,64.12
2017-03-19T09:11:12.152Z,64.43
2017-03-19T09:12:22.505Z,64.43
2017-03-19T09:13:32.847Z,64.82
2017-03-19T09:14:43.192Z,65.01
2017-03-19T09:15:53.548Z,65.77
2017-03-19T09:17:03.898Z,65.3
2017-03-19T09:18:14.246Z,65.68
2017-03-19T09:19:23.963Z,65.55
2017-03-19T09:20:34.317Z,65.93
2017-03-19T09:21:44.036Z,65.84
2017-03-19T09:22:54.139Z,65.84
2017-03-19T09:24:04.510Z,65.93
2017-03-19T09:25:14.877Z,66.41
2017-03-19T09:26:24.902Z,66.31
2017-03-19T09:27:35.284Z,66.6
2017-03-19T09:28:45.628Z,66.41
2017-03-19T09:29:55.677Z,66.56
2017-03-19T09:31:06.024Z,66.38
2017-03-19T09:32:16.059Z,66.76
2017-03-19T09:33:25.803Z,66.47
2017-03-19T09:34:36.181Z,66.19
2017-03-19T09:35:46.243Z,66.19
2017-03-19T09:36:56.282Z,66.19
2017-03-19T09:38:06.640Z,66.47
2017-03-19T09:39:16.987Z,66.56
2017-03-19T09:40:27.346Z,66.56
2017-03-19T09:41:37.366Z,66.09
2017-03-19T09:42:47.095Z,66.95
2017-03-19T09:43:57.146Z,66.95
2017-03-19T09:45:07.199Z,66.09
2017-03-19T09:46:17.555Z,66.38
2017-03-19T09:47:27.900Z,66.28
2017-03-19T09:48:38.243Z,66.28
2017-03-19T09:49:48.643Z,66.19
2017-03-19T09:50:59.006Z,66.19
2017-03-19T09:52:09.366Z,66.19
2017-03-19T09:53:19.742Z,66.56
2017-03-19T09:54:29.797Z,66.38
2017-03-19T09:55:40.138Z,66.56
2017-03-19T09:56:50.484Z,66.38
2017-03-19T09:58:00.820Z,66.56
2017-03-19T09:59:11.192Z,66.28
2017-03-19T10:00:21.532Z,65.52
2017-03-19T10:01:31.254Z,66
2017-03-19T10:02:41.301Z,65.33
2017-03-19T10:03:51.648Z,65.42
2017-03-19T10:05:02.035Z,65.07
2017-03-19T10:06:12.404Z,65.55
2017-03-19T10:07:22.731Z,65.64
2017-03-19T10:08:33.069Z,65.36
2017-03-19T10:09:43.424Z,65.07
2017-03-19T10:10:53.788Z,64.82
2017-03-19T10:12:03.874Z,64.53
2017-03-19T10:13:14.252Z,64.25
2017-03-19T10:14:24.583Z,64.66
2017-03-19T10:15:34.950Z,64.56
2017-03-19T10:16:45.307Z,64.47
2017-03-19T10:17:55.669Z,64.28
2017-03-19T10:19:06.033Z,64.66
2017-03-19T10:20:16.097Z,64.66
2017-03-19T10:21:26.491Z,64.85
2017-03-19T10:22:36.846Z,65.14
2017-03-19T10:23:47.204Z,65.48
2017-03-19T10:24:57.237Z,65.2
2017-03-19T10:26:07.280Z,65.39
2017-03-19T10:27:17.301Z,65.3
2017-03-19T10:28:27.351Z,65.48
2017-03-19T10:29:37.379Z,65.3
2017-03-19T10:30:47.742Z,65.01
2017-03-19T10:31:57.783Z,64.85
2017-03-19T10:33:08.124Z,64.85
2017-03-19T10:34:18.465Z,65.52
2017-03-19T10:35:28.818Z,65.3
2017-03-19T10:36:38.883Z,65.77
2017-03-19T10:37:49.253Z,65.68
2017-03-19T10:38:59.310Z,66.35
2017-03-19T10:40:09.664Z,65.58
2017-03-19T10:41:19.689Z,65.3
2017-03-19T10:42:30.049Z,65.68
2017-03-19T10:43:40.401Z,65.68
2017-03-19T10:44:50.442Z,66.22
2017-03-19T10:46:00.810Z,66.5
2017-03-19T10:47:11.170Z,66.22
2017-03-19T10:48:21.524Z,66.41
2017-03-19T10:49:31.884Z,66.6
2017-03-19T10:50:41.915Z,66.5
2017-03-19T10:51:51.990Z,66.41
2017-03-19T10:53:02.353Z,65.74
2017-03-19T10:54:12.701Z,65.77
2017-03-19T10:55:23.071Z,65.93
2017-03-19T10:56:33.476Z,66.35
2017-03-19T10:57:43.820Z,65.39
2017-03-19T10:58:54.168Z,65.3
2017-03-19T11:00:04.524Z,65.48
2017-03-19T11:01:14.575Z,65.2
2017-03-19T11:02:24.932Z,65.2
2017-03-19T11:03:35.283Z,65.33
2017-03-19T11:04:45.888Z,65.3
2017-03-19T11:05:56.241Z,65.33
2017-03-19T11:07:06.580Z,65.04
2017-03-19T11:08:16.946Z,65.42
2017-03-19T11:09:27.022Z,65.23
2017-03-19T11:10:37.394Z,65.33
2017-03-19T11:11:47.750Z,65.42
2017-03-19T11:12:57.514Z,65.33
2017-03-19T11:14:07.853Z,65.23
2017-03-19T11:15:18.201Z,65.52
2017-03-19T11:16:28.543Z,65.42
2017-03-19T11:17:38.591Z,65.52
2017-03-19T11:18:48.955Z,65.33
2017-03-19T11:19:59.006Z,65.04
2017-03-19T11:21:09.035Z,64.98
2017-03-19T11:22:19.070Z,65.36
2017-03-19T11:23:29.432Z,64.5
2017-03-19T11:24:39.479Z,64.5
2017-03-19T11:25:49.527Z,64.43
2017-03-19T11:26:59.877Z,64.15
2017-03-19T11:28:10.227Z,64.43
2017-03-19T11:29:20.273Z,64.53
2017-03-19T11:30:30.626Z,64.66
2017-03-19T11:31:40.981Z,64.53
2017-03-19T11:32:51.367Z,64.66
2017-03-19T11:34:01.974Z,64.66
2017-03-19T11:35:12.335Z,64.56
2017-03-19T11:36:22.711Z,64.56
2017-03-19T11:37:32.787Z,64.76
2017-03-19T11:38:43.146Z,65.14
2017-03-19T11:39:53.179Z,65.05
2017-03-19T11:41:03.515Z,65.52
2017-03-19T11:42:13.864Z,65.52
2017-03-19T11:43:24.226Z,65.42
2017-03-19T11:44:34.577Z,65.42
2017-03-19T11:45:44.932Z,65.23
2017-03-19T11:46:55.301Z,65.23
2017-03-19T11:48:05.679Z,65.42
2017-03-19T11:49:16.063Z,65.23
2017-03-19T11:50:26.436Z,65.23
2017-03-19T11:51:36.798Z,65.52
2017-03-19T11:52:47.161Z,65.62
2017-03-19T11:53:57.203Z,65.14
2017-03-19T11:55:07.578Z,65.78
2017-03-19T11:56:17.611Z,66.25
2017-03-19T11:57:27.664Z,66.16
2017-03-19T11:58:37.695Z,66.64
2017-03-19T11:59:47.746Z,66.8
2017-03-19T12:00:57.782Z,66.41
2017-03-19T12:02:07.512Z,66.32
2017-03-19T12:03:17.558Z,66.13
2017-03-19T12:04:27.945Z,65.94
2017-03-19T12:05:38.306Z,66.41
2017-03-19T12:06:48.643Z,65.58
2017-03-19T12:07:59.018Z,65.78
2017-03-19T12:09:09.062Z,65.3
2017-03-19T12:10:19.409Z,65.49
2017-03-19T12:11:29.751Z,65.39
2017-03-19T12:12:40.093Z,65.78
2017-03-19T12:13:50.460Z,65.78
2017-03-19T12:15:00.824Z,66.54
2017-03-19T12:16:10.607Z,66.54
2017-03-19T12:17:20.647Z,66.22
2017-03-19T12:18:31.023Z,66.22
2017-03-19T12:19:41.381Z,66.41
2017-03-19T12:20:51.431Z,66.7
2017-03-19T12:22:01.548Z,66.22
2017-03-19T12:23:11.588Z,66.61
2017-03-19T12:24:21.962Z,66.86
2017-03-19T12:25:32.318Z,66.67
2017-03-19T12:26:42.922Z,66.38
2017-03-19T12:27:53.287Z,66.76
2017-03-19T12:29:03.329Z,66.28
2017-03-19T12:30:13.378Z,66.51
2017-03-19T12:31:23.743Z,66.41
2017-03-19T12:32:34.107Z,65.45
2017-03-19T12:33:44.520Z,65.36
2017-03-19T12:34:54.918Z,65.78
2017-03-19T12:36:05.272Z,65.39
2017-03-19T12:37:15.330Z,65.05
2017-03-19T12:38:25.711Z,65.14
2017-03-19T12:39:36.099Z,65.14
2017-03-19T12:40:46.143Z,65.14
2017-03-19T12:41:56.478Z,65.23
2017-03-19T12:43:06.872Z,65.26
2017-03-19T12:44:17.231Z,65.05
2017-03-19T12:45:27.268Z,65.26
2017-03-19T12:46:37.594Z,65.75
2017-03-19T12:47:47.954Z,65.84
2017-03-19T12:48:58.007Z,65.75
2017-03-19T12:50:08.378Z,65.46
2017-03-19T12:51:18.415Z,65.65
2017-03-19T12:52:28.796Z,65.75
2017-03-19T12:53:39.165Z,65.84
2017-03-19T12:54:49.547Z,66
2017-03-19T12:55:59.899Z,66.09
2017-03-19T12:57:10.259Z,66
2017-03-19T12:58:20.634Z,66.61
2017-03-19T12:59:30.986Z,66.58
2017-03-19T13:00:41.333Z,66.67
2017-03-19T13:01:51.679Z,66.38
2017-03-19T13:03:02.058Z,66.48
2017-03-19T13:04:12.416Z,66.67
2017-03-19T13:05:22.479Z,66.58
2017-03-19T13:06:32.834Z,66.29
2017-03-19T13:07:43.201Z,66.19
2017-03-19T13:08:53.583Z,66.09
2017-03-19T13:10:03.710Z,66.19
2017-03-19T13:11:14.053Z,66.19
2017-03-19T13:12:24.102Z,66.48
2017-03-19T13:13:34.465Z,66.38
2017-03-19T13:14:44.822Z,66.38
2017-03-19T13:15:55.174Z,66.38
2017-03-19T13:17:05.573Z,66.29
2017-03-19T13:18:15.627Z,66.58
2017-03-19T13:19:25.685Z,66.67
2017-03-19T13:20:36.039Z,66.58
2017-03-19T13:21:46.122Z,67.34
2017-03-19T13:22:56.489Z,66.38
2017-03-19T13:24:06.863Z,66.58
2017-03-19T13:25:17.236Z,66.58
2017-03-19T13:26:27.608Z,66.77
2017-03-19T13:27:37.956Z,66.58
2017-03-19T13:28:48.329Z,66.86
2017-03-19T13:29:58.679Z,66.35
2017-03-19T13:31:08.716Z,66.58
2017-03-19T13:32:19.075Z,66.54
2017-03-19T13:33:29.431Z,66.35
2017-03-19T13:34:39.783Z,66.74
2017-03-19T13:35:50.143Z,66.35
2017-03-19T13:37:00.520Z,66.35
2017-03-19T13:38:10.599Z,66.35
2017-03-19T13:39:20.952Z,66.45
2017-03-19T13:40:31.306Z,66.64
2017-03-19T13:41:41.662Z,66.64
2017-03-19T13:42:52.007Z,66.54
2017-03-19T13:44:02.366Z,67.21
2017-03-19T13:45:12.440Z,67.18
2017-03-19T13:46:22.812Z,67.18
2017-03-19T13:47:33.166Z,67.56
2017-03-19T13:48:43.530Z,67.56
2017-03-19T13:49:53.883Z,67.47
2017-03-19T13:51:03.938Z,67.47
2017-03-19T13:52:14.292Z,67.47
2017-03-19T13:53:24.349Z,67.47
2017-03-19T13:54:34.705Z,67.24
2017-03-19T13:55:45.051Z,67.24
2017-03-19T13:56:55.424Z,67.27
2017-03-19T13:58:05.772Z,67.18
2017-03-19T13:59:16.127Z,66.99
2017-03-19T14:00:26.173Z,67.24
2017-03-19T14:01:36.546Z,67.24
2017-03-19T14:02:46.582Z,67.27
2017-03-19T14:03:56.932Z,67.34
2017-03-19T14:05:06.994Z,66.96
2017-03-19T14:06:17.345Z,66.96
2017-03-19T14:07:27.686Z,67.14
2017-03-19T14:08:37.734Z,67.14
2017-03-19T14:09:48.100Z,67.34
2017-03-19T14:10:58.134Z,67.14
2017-03-19T14:12:08.485Z,67.14
2017-03-19T14:13:18.876Z,67.43
2017-03-19T14:14:29.246Z,67.34
2017-03-19T14:15:39.596Z,67.34
2017-03-19T14:16:49.338Z,67.24
2017-03-19T14:17:59.412Z,67.43
2017-03-19T14:19:09.752Z,67.34
2017-03-19T14:20:20.119Z,67.43
2017-03-19T14:21:30.485Z,67.53
2017-03-19T14:22:40.852Z,67.14
2017-03-19T14:23:50.895Z,67.14
2017-03-19T14:25:00.951Z,67.14
2017-03-19T14:26:11.297Z,67.24
2017-03-19T14:27:21.329Z,66.7
2017-03-19T14:28:31.733Z,66.8
2017-03-19T14:29:42.105Z,66.99
2017-03-19T14:30:52.463Z,66.61
2017-03-19T14:32:02.811Z,66.51
2017-03-19T14:33:13.172Z,66.51
2017-03-19T14:34:23.538Z,66.32
2017-03-19T14:35:33.567Z,66.54
2017-03-19T14:36:43.924Z,65.88
2017-03-19T14:37:54.261Z,66.25
2017-03-19T14:39:04.313Z,65.97
2017-03-19T14:40:14.677Z,66.16
2017-03-19T14:41:24.722Z,66.35
2017-03-19T14:42:34.757Z,66.54
2017-03-19T14:43:45.102Z,66.74
2017-03-19T14:44:55.451Z,66.45
2017-03-19T14:46:05.186Z,66.35
2017-03-19T14:47:15.526Z,66.35
2017-03-19T14:48:25.879Z,66.54
2017-03-19T14:49:36.243Z,66.25
2017-03-19T14:50:46.294Z,66.64
2017-03-19T14:51:56.644Z,66.54
2017-03-19T14:53:06.673Z,66.67
2017-03-19T14:54:16.706Z,66.77
2017-03-19T14:55:26.797Z,67.25
2017-03-19T14:56:36.815Z,66.86
2017-03-19T14:57:46.873Z,66.54
2017-03-19T14:58:56.914Z,66.77
2017-03-19T15:00:07.271Z,66.67
2017-03-19T15:01:17.614Z,66.58
2017-03-19T15:02:27.646Z,66.29
2017-03-19T15:03:37.724Z,66.48
2017-03-19T15:04:47.765Z,66.19
2017-03-19T15:05:58.144Z,66.09
2017-03-19T15:07:07.885Z,66.29
2017-03-19T15:08:18.264Z,66.38
2017-03-19T15:09:28.660Z,66.67
2017-03-19T15:10:39.017Z,67.15
2017-03-19T15:11:49.362Z,66.48
2017-03-19T15:12:59.406Z,67.15
2017-03-19T15:14:09.768Z,66.86
2017-03-19T15:15:20.125Z,67.05
2017-03-19T15:16:30.487Z,67.41
2017-03-19T15:17:40.855Z,67.21
2017-03-19T15:18:50.893Z,66.93
2017-03-19T15:20:01.255Z,67.31
2017-03-19T15:21:11.613Z,66.93
2017-03-19T15:22:21.659Z,67.5
2017-03-19T15:23:31.712Z,67.56
2017-03-19T15:24:42.046Z,67.66
2017-03-19T15:25:52.114Z,67.27
2017-03-19T15:27:02.463Z,67.85
2017-03-19T15:28:12.497Z,67.85
2017-03-19T15:29:22.859Z,68.01
2017-03-19T15:30:32.887Z,67.72
2017-03-19T15:31:43.260Z,67.82
2017-03-19T15:32:53.595Z,67.24
2017-03-19T15:34:03.664Z,67.72
2017-03-19T15:35:13.719Z,67.34
2017-03-19T15:36:24.075Z,67.72
2017-03-19T15:37:34.424Z,67.82
2017-03-19T15:38:44.471Z,67.72
2017-03-19T15:39:54.834Z,67.78
2017-03-19T15:41:05.206Z,67.3
2017-03-19T15:42:15.562Z,67.91
2017-03-19T15:43:25.913Z,67.34
2017-03-19T15:44:36.290Z,67.34
2017-03-19T15:45:46.677Z,67.24
2017-03-19T15:46:56.765Z,67.53